sensor_id;sensor_type;location;lat;lon;timestamp;temperature;humidity
27072;DHT22;14613;46.308;25.288;2023-07-31T00:01:03;21.00;79.80
27072;DHT22;14613;46.308;25.288;2023-07-31T00:03:29;21.00;79.80
27072;DHT22;14613;46.308;25.288;2023-07-31T00:05:55;21.00;80.70
27072;DHT22;14613;46.308;25.288;2023-07-31T00:08:21;21.00;79.90
27072;DHT22;14613;46.308;25.288;2023-07-31T00:10:46;21.00;79.80
27072;DHT22;14613;46.308;25.288;2023-07-31T00:13:12;21.00;79.70
27072;DHT22;14613;46.308;25.288;2023-07-31T00:15:38;21.00;79.60
27072;DHT22;14613;46.308;25.288;2023-07-31T00:18:03;21.00;79.50
27072;DHT22;14613;46.308;25.288;2023-07-31T00:20:29;21.00;79.50
27072;DHT22;14613;46.308;25.288;2023-07-31T00:22:55;21.00;79.60
27072;DHT22;14613;46.308;25.288;2023-07-31T00:25:20;21.00;79.70
27072;DHT22;14613;46.308;25.288;2023-07-31T00:27:46;21.00;79.80
27072;DHT22;14613;46.308;25.288;2023-07-31T00:30:12;21.00;79.80
27072;DHT22;14613;46.308;25.288;2023-07-31T00:32:37;21.00;79.90
27072;DHT22;14613;46.308;25.288;2023-07-31T00:35:03;21.00;80.00
27072;DHT22;14613;46.308;25.288;2023-07-31T00:37:29;21.00;80.10
27072;DHT22;14613;46.308;25.288;2023-07-31T00:39:55;20.90;80.10
27072;DHT22;14613;46.308;25.288;2023-07-31T00:42:21;20.90;80.10
27072;DHT22;14613;46.308;25.288;2023-07-31T00:44:46;20.90;80.10
27072;DHT22;14613;46.308;25.288;2023-07-31T00:47:12;21.00;80.30
27072;DHT22;14613;46.308;25.288;2023-07-31T00:49:38;20.90;81.00
27072;DHT22;14613;46.308;25.288;2023-07-31T00:52:04;20.90;80.30
27072;DHT22;14613;46.308;25.288;2023-07-31T00:54:30;20.90;80.30
27072;DHT22;14613;46.308;25.288;2023-07-31T00:56:56;20.90;80.30
27072;DHT22;14613;46.308;25.288;2023-07-31T00:59:22;20.90;80.30
27072;DHT22;14613;46.308;25.288;2023-07-31T01:01:48;21.00;80.40
27072;DHT22;14613;46.308;25.288;2023-07-31T01:04:15;20.90;80.30
27072;DHT22;14613;46.308;25.288;2023-07-31T01:09:40;20.90;80.50
27072;DHT22;14613;46.308;25.288;2023-07-31T01:18:58;20.90;80.70
27072;DHT22;14613;46.308;25.288;2023-07-31T01:29:51;20.80;81.40
27072;DHT22;14613;46.308;25.288;2023-07-31T01:32:19;20.70;82.30
27072;DHT22;14613;46.308;25.288;2023-07-31T01:34:45;20.70;81.70
27072;DHT22;14613;46.308;25.288;2023-07-31T01:37:12;20.70;82.70
27072;DHT22;14613;46.308;25.288;2023-07-31T01:39:38;20.70;81.80
27072;DHT22;14613;46.308;25.288;2023-07-31T01:42:04;20.80;81.80
27072;DHT22;14613;46.308;25.288;2023-07-31T01:44:29;20.80;81.70
27072;DHT22;14613;46.308;25.288;2023-07-31T01:46:56;20.70;81.60
27072;DHT22;14613;46.308;25.288;2023-07-31T01:49:22;20.80;81.60
27072;DHT22;14613;46.308;25.288;2023-07-31T01:51:47;20.80;81.60
27072;DHT22;14613;46.308;25.288;2023-07-31T01:54:13;20.70;81.50
27072;DHT22;14613;46.308;25.288;2023-07-31T02:10:29;20.70;81.60
27072;DHT22;14613;46.308;25.288;2023-07-31T02:12:54;20.70;81.50
27072;DHT22;14613;46.308;25.288;2023-07-31T02:15:20;20.70;81.50
27072;DHT22;14613;46.308;25.288;2023-07-31T02:17:46;20.70;81.60
27072;DHT22;14613;46.308;25.288;2023-07-31T02:27:00;20.70;81.80
27072;DHT22;14613;46.308;25.288;2023-07-31T02:33:14;20.60;81.90
27072;DHT22;14613;46.308;25.288;2023-07-31T02:39:34;20.60;82.10
27072;DHT22;14613;46.308;25.288;2023-07-31T02:42:03;20.60;82.10
27072;DHT22;14613;46.308;25.288;2023-07-31T02:47:38;20.60;83.00
27072;DHT22;14613;46.308;25.288;2023-07-31T02:50:07;20.60;82.20
27072;DHT22;14613;46.308;25.288;2023-07-31T02:52:32;20.60;82.20
27072;DHT22;14613;46.308;25.288;2023-07-31T02:54:58;20.60;82.30
27072;DHT22;14613;46.308;25.288;2023-07-31T02:57:24;20.60;82.30
27072;DHT22;14613;46.308;25.288;2023-07-31T03:09:56;20.60;82.70
27072;DHT22;14613;46.308;25.288;2023-07-31T03:12:22;20.60;82.70
27072;DHT22;14613;46.308;25.288;2023-07-31T03:14:48;20.60;82.80
27072;DHT22;14613;46.308;25.288;2023-07-31T03:17:14;20.60;82.80
27072;DHT22;14613;46.308;25.288;2023-07-31T03:19:40;20.60;83.00
27072;DHT22;14613;46.308;25.288;2023-07-31T03:22:06;20.60;83.00
27072;DHT22;14613;46.308;25.288;2023-07-31T03:24:31;20.60;83.10
27072;DHT22;14613;46.308;25.288;2023-07-31T03:26:57;20.60;83.20
27072;DHT22;14613;46.308;25.288;2023-07-31T03:29:23;20.60;83.30
27072;DHT22;14613;46.308;25.288;2023-07-31T03:31:48;20.60;83.30
27072;DHT22;14613;46.308;25.288;2023-07-31T03:34:14;20.60;83.30
27072;DHT22;14613;46.308;25.288;2023-07-31T03:36:40;20.70;83.30
27072;DHT22;14613;46.308;25.288;2023-07-31T03:39:06;20.80;83.30
27072;DHT22;14613;46.308;25.288;2023-07-31T03:41:31;20.80;83.30
27072;DHT22;14613;46.308;25.288;2023-07-31T03:43:57;20.80;83.20
27072;DHT22;14613;46.308;25.288;2023-07-31T03:46:24;20.80;83.20
27072;DHT22;14613;46.308;25.288;2023-07-31T03:48:50;20.80;83.10
27072;DHT22;14613;46.308;25.288;2023-07-31T03:51:16;20.90;83.10
27072;DHT22;14613;46.308;25.288;2023-07-31T03:53:43;20.90;83.10
27072;DHT22;14613;46.308;25.288;2023-07-31T03:56:09;20.90;83.20
27072;DHT22;14613;46.308;25.288;2023-07-31T03:58:34;20.90;83.20
27072;DHT22;14613;46.308;25.288;2023-07-31T04:01:01;20.90;83.20
27072;DHT22;14613;46.308;25.288;2023-07-31T04:03:27;21.00;83.30
27072;DHT22;14613;46.308;25.288;2023-07-31T04:05:54;21.00;83.30
27072;DHT22;14613;46.308;25.288;2023-07-31T04:11:44;21.00;83.30
27072;DHT22;14613;46.308;25.288;2023-07-31T04:14:09;21.00;83.30
27072;DHT22;14613;46.308;25.288;2023-07-31T04:16:35;21.00;83.30
27072;DHT22;14613;46.308;25.288;2023-07-31T04:19:01;21.00;83.40
27072;DHT22;14613;46.308;25.288;2023-07-31T04:21:28;21.00;83.40
27072;DHT22;14613;46.308;25.288;2023-07-31T04:23:53;21.00;83.40
27072;DHT22;14613;46.308;25.288;2023-07-31T04:26:21;21.00;83.40
27072;DHT22;14613;46.308;25.288;2023-07-31T04:28:47;21.00;83.50
27072;DHT22;14613;46.308;25.288;2023-07-31T04:31:13;21.00;83.70
27072;DHT22;14613;46.308;25.288;2023-07-31T04:33:38;21.00;83.70
27072;DHT22;14613;46.308;25.288;2023-07-31T04:36:05;21.00;83.80
27072;DHT22;14613;46.308;25.288;2023-07-31T04:38:31;21.00;83.80
27072;DHT22;14613;46.308;25.288;2023-07-31T04:40:56;21.10;83.80
27072;DHT22;14613;46.308;25.288;2023-07-31T04:43:22;21.10;83.80
27072;DHT22;14613;46.308;25.288;2023-07-31T04:45:48;21.10;83.80
27072;DHT22;14613;46.308;25.288;2023-07-31T04:48:15;21.20;83.80
27072;DHT22;14613;46.308;25.288;2023-07-31T04:50:41;21.20;83.70
27072;DHT22;14613;46.308;25.288;2023-07-31T04:53:07;21.20;83.80
27072;DHT22;14613;46.308;25.288;2023-07-31T04:55:33;21.30;83.90
27072;DHT22;14613;46.308;25.288;2023-07-31T04:57:59;21.30;83.90
27072;DHT22;14613;46.308;25.288;2023-07-31T05:00:25;21.30;83.90
27072;DHT22;14613;46.308;25.288;2023-07-31T05:02:50;21.40;84.00
27072;DHT22;14613;46.308;25.288;2023-07-31T05:05:16;21.40;84.00
27072;DHT22;14613;46.308;25.288;2023-07-31T05:07:42;21.50;84.00
27072;DHT22;14613;46.308;25.288;2023-07-31T05:10:08;21.50;83.90
27072;DHT22;14613;46.308;25.288;2023-07-31T05:12:34;21.60;83.80
27072;DHT22;14613;46.308;25.288;2023-07-31T05:15:00;21.70;83.90
27072;DHT22;14613;46.308;25.288;2023-07-31T05:17:25;21.80;83.80
27072;DHT22;14613;46.308;25.288;2023-07-31T05:19:51;21.80;83.80
27072;DHT22;14613;46.308;25.288;2023-07-31T05:22:17;21.80;83.80
27072;DHT22;14613;46.308;25.288;2023-07-31T05:24:42;21.80;83.80
27072;DHT22;14613;46.308;25.288;2023-07-31T05:27:08;21.80;84.00
27072;DHT22;14613;46.308;25.288;2023-07-31T05:29:35;21.80;83.90
27072;DHT22;14613;46.308;25.288;2023-07-31T05:32:01;21.80;84.00
27072;DHT22;14613;46.308;25.288;2023-07-31T05:34:27;21.70;84.10
27072;DHT22;14613;46.308;25.288;2023-07-31T05:36:53;21.70;84.20
27072;DHT22;14613;46.308;25.288;2023-07-31T05:39:19;21.60;84.30
27072;DHT22;14613;46.308;25.288;2023-07-31T05:41:45;21.50;84.40
27072;DHT22;14613;46.308;25.288;2023-07-31T05:44:11;21.50;84.80
27072;DHT22;14613;46.308;25.288;2023-07-31T05:46:37;21.50;85.00
27072;DHT22;14613;46.308;25.288;2023-07-31T05:49:02;21.40;85.00
27072;DHT22;14613;46.308;25.288;2023-07-31T05:51:28;21.40;85.00
27072;DHT22;14613;46.308;25.288;2023-07-31T05:53:54;21.30;85.30
27072;DHT22;14613;46.308;25.288;2023-07-31T05:56:19;21.10;86.00
27072;DHT22;14613;46.308;25.288;2023-07-31T05:58:45;21.00;86.50
27072;DHT22;14613;46.308;25.288;2023-07-31T06:01:11;21.00;86.70
27072;DHT22;14613;46.308;25.288;2023-07-31T06:03:37;21.10;86.80
27072;DHT22;14613;46.308;25.288;2023-07-31T06:06:02;21.10;86.70
27072;DHT22;14613;46.308;25.288;2023-07-31T06:08:28;21.10;86.70
27072;DHT22;14613;46.308;25.288;2023-07-31T06:10:54;21.00;87.00
27072;DHT22;14613;46.308;25.288;2023-07-31T06:13:20;21.00;87.40
27072;DHT22;14613;46.308;25.288;2023-07-31T06:15:45;21.00;87.50
27072;DHT22;14613;46.308;25.288;2023-07-31T06:18:11;21.10;87.40
27072;DHT22;14613;46.308;25.288;2023-07-31T06:20:37;21.10;87.40
27072;DHT22;14613;46.308;25.288;2023-07-31T06:23:06;21.10;87.30
27072;DHT22;14613;46.308;25.288;2023-07-31T06:25:31;21.20;87.20
27072;DHT22;14613;46.308;25.288;2023-07-31T06:27:57;21.30;87.20
27072;DHT22;14613;46.308;25.288;2023-07-31T06:30:23;21.40;87.00
27072;DHT22;14613;46.308;25.288;2023-07-31T06:32:48;21.50;86.80
27072;DHT22;14613;46.308;25.288;2023-07-31T06:35:14;21.60;86.50
27072;DHT22;14613;46.308;25.288;2023-07-31T06:37:40;21.80;86.30
27072;DHT22;14613;46.308;25.288;2023-07-31T06:40:09;21.80;86.00
27072;DHT22;14613;46.308;25.288;2023-07-31T06:42:35;21.90;85.90
27072;DHT22;14613;46.308;25.288;2023-07-31T06:45:02;22.10;86.70
27072;DHT22;14613;46.308;25.288;2023-07-31T06:47:27;22.20;85.60
27072;DHT22;14613;46.308;25.288;2023-07-31T06:49:53;22.30;85.30
27072;DHT22;14613;46.308;25.288;2023-07-31T06:52:19;22.40;85.10
27072;DHT22;14613;46.308;25.288;2023-07-31T06:54:50;22.50;85.00
27072;DHT22;14613;46.308;25.288;2023-07-31T06:57:25;22.50;84.90
27072;DHT22;14613;46.308;25.288;2023-07-31T06:59:51;22.70;85.00
27072;DHT22;14613;46.308;25.288;2023-07-31T07:02:16;22.80;84.70
27072;DHT22;14613;46.308;25.288;2023-07-31T07:04:42;22.80;84.70
27072;DHT22;14613;46.308;25.288;2023-07-31T07:07:08;22.80;85.80
27072;DHT22;14613;46.308;25.288;2023-07-31T07:09:33;23.00;85.00
27072;DHT22;14613;46.308;25.288;2023-07-31T07:11:59;23.20;85.00
27072;DHT22;14613;46.308;25.288;2023-07-31T07:14:25;23.40;84.60
27072;DHT22;14613;46.308;25.288;2023-07-31T07:16:51;23.50;84.40
27072;DHT22;14613;46.308;25.288;2023-07-31T07:19:17;23.70;84.00
27072;DHT22;14613;46.308;25.288;2023-07-31T07:21:43;24.00;83.90
27072;DHT22;14613;46.308;25.288;2023-07-31T07:24:09;24.20;83.50
27072;DHT22;14613;46.308;25.288;2023-07-31T07:26:34;24.50;82.80
27072;DHT22;14613;46.308;25.288;2023-07-31T07:29:00;24.60;81.80
27072;DHT22;14613;46.308;25.288;2023-07-31T07:31:28;24.70;81.60
27072;DHT22;14613;46.308;25.288;2023-07-31T07:33:54;24.90;81.30
27072;DHT22;14613;46.308;25.288;2023-07-31T07:36:20;25.00;80.90
27072;DHT22;14613;46.308;25.288;2023-07-31T07:38:45;25.10;80.40
27072;DHT22;14613;46.308;25.288;2023-07-31T07:41:11;25.20;80.00
27072;DHT22;14613;46.308;25.288;2023-07-31T07:43:37;25.20;79.60
27072;DHT22;14613;46.308;25.288;2023-07-31T07:46:02;25.20;79.40
27072;DHT22;14613;46.308;25.288;2023-07-31T07:48:28;25.20;79.20
27072;DHT22;14613;46.308;25.288;2023-07-31T07:50:54;25.20;79.00
27072;DHT22;14613;46.308;25.288;2023-07-31T07:53:19;25.10;78.80
27072;DHT22;14613;46.308;25.288;2023-07-31T07:55:45;25.10;78.80
27072;DHT22;14613;46.308;25.288;2023-07-31T07:58:11;25.20;78.80
27072;DHT22;14613;46.308;25.288;2023-07-31T08:00:37;25.20;78.70
27072;DHT22;14613;46.308;25.288;2023-07-31T08:16:44;25.60;77.70
27072;DHT22;14613;46.308;25.288;2023-07-31T08:26:05;25.80;76.90
27072;DHT22;14613;46.308;25.288;2023-07-31T08:28:31;25.80;76.70
27072;DHT22;14613;46.308;25.288;2023-07-31T08:30:57;25.80;76.60
27072;DHT22;14613;46.308;25.288;2023-07-31T08:33:22;25.80;76.50
27072;DHT22;14613;46.308;25.288;2023-07-31T08:35:48;25.80;76.40
27072;DHT22;14613;46.308;25.288;2023-07-31T08:38:14;25.80;76.20
27072;DHT22;14613;46.308;25.288;2023-07-31T08:40:40;25.80;76.10
27072;DHT22;14613;46.308;25.288;2023-07-31T08:43:05;25.80;76.10
27072;DHT22;14613;46.308;25.288;2023-07-31T08:45:32;25.80;76.10
27072;DHT22;14613;46.308;25.288;2023-07-31T08:47:58;25.80;75.90
27072;DHT22;14613;46.308;25.288;2023-07-31T08:50:24;25.90;75.90
27072;DHT22;14613;46.308;25.288;2023-07-31T08:52:51;25.90;75.90
27072;DHT22;14613;46.308;25.288;2023-07-31T08:55:17;26.00;75.90
27072;DHT22;14613;46.308;25.288;2023-07-31T08:57:49;26.10;75.60
27072;DHT22;14613;46.308;25.288;2023-07-31T09:00:16;26.10;75.40
27072;DHT22;14613;46.308;25.288;2023-07-31T09:02:49;26.20;75.30
27072;DHT22;14613;46.308;25.288;2023-07-31T09:05:17;26.30;75.10
27072;DHT22;14613;46.308;25.288;2023-07-31T09:07:45;26.40;74.90
27072;DHT22;14613;46.308;25.288;2023-07-31T09:10:12;26.50;74.70
27072;DHT22;14613;46.308;25.288;2023-07-31T09:12:39;26.60;74.50
27072;DHT22;14613;46.308;25.288;2023-07-31T09:15:06;26.70;74.30
27072;DHT22;14613;46.308;25.288;2023-07-31T09:17:33;26.90;74.30
27072;DHT22;14613;46.308;25.288;2023-07-31T09:20:32;27.10;74.20
27072;DHT22;14613;46.308;25.288;2023-07-31T09:23:09;27.40;74.00
27072;DHT22;14613;46.308;25.288;2023-07-31T09:25:35;27.60;73.70
27072;DHT22;14613;46.308;25.288;2023-07-31T09:30:28;28.10;72.90
27072;DHT22;14613;46.308;25.288;2023-07-31T09:33:02;28.40;72.50
27072;DHT22;14613;46.308;25.288;2023-07-31T09:35:30;28.50;71.80
27072;DHT22;14613;46.308;25.288;2023-07-31T09:37:59;28.60;71.40
27072;DHT22;14613;46.308;25.288;2023-07-31T09:40:27;28.60;70.90
27072;DHT22;14613;46.308;25.288;2023-07-31T09:42:55;28.50;70.50
27072;DHT22;14613;46.308;25.288;2023-07-31T09:45:22;28.50;70.20
27072;DHT22;14613;46.308;25.288;2023-07-31T09:47:48;28.50;70.20
27072;DHT22;14613;46.308;25.288;2023-07-31T09:50:14;28.50;70.20
27072;DHT22;14613;46.308;25.288;2023-07-31T09:52:41;28.60;70.10
27072;DHT22;14613;46.308;25.288;2023-07-31T09:55:09;28.70;69.90
27072;DHT22;14613;46.308;25.288;2023-07-31T09:57:40;28.80;69.70
27072;DHT22;14613;46.308;25.288;2023-07-31T10:00:09;28.90;69.30
27072;DHT22;14613;46.308;25.288;2023-07-31T10:02:36;28.90;69.10
27072;DHT22;14613;46.308;25.288;2023-07-31T10:05:04;29.00;68.90
27072;DHT22;14613;46.308;25.288;2023-07-31T10:07:31;29.10;68.40
27072;DHT22;14613;46.308;25.288;2023-07-31T10:09:59;29.00;68.10
27072;DHT22;14613;46.308;25.288;2023-07-31T10:12:29;29.10;68.10
27072;DHT22;14613;46.308;25.288;2023-07-31T10:14:56;29.10;67.90
27072;DHT22;14613;46.308;25.288;2023-07-31T10:17:24;29.10;67.80
27072;DHT22;14613;46.308;25.288;2023-07-31T10:19:50;29.20;67.90
27072;DHT22;14613;46.308;25.288;2023-07-31T10:22:16;29.40;68.00
27072;DHT22;14613;46.308;25.288;2023-07-31T10:24:46;29.50;67.70
27072;DHT22;14613;46.308;25.288;2023-07-31T10:27:12;29.70;67.40
27072;DHT22;14613;46.308;25.288;2023-07-31T10:29:39;29.80;67.20
27072;DHT22;14613;46.308;25.288;2023-07-31T10:32:06;29.90;67.10
27072;DHT22;14613;46.308;25.288;2023-07-31T10:34:36;30.10;66.80
27072;DHT22;14613;46.308;25.288;2023-07-31T10:37:27;30.20;66.20
27072;DHT22;14613;46.308;25.288;2023-07-31T10:39:58;30.20;65.80
27072;DHT22;14613;46.308;25.288;2023-07-31T10:42:34;30.20;65.50
27072;DHT22;14613;46.308;25.288;2023-07-31T10:45:02;30.30;65.10
27072;DHT22;14613;46.308;25.288;2023-07-31T10:47:28;30.30;65.50
27072;DHT22;14613;46.308;25.288;2023-07-31T10:50:13;30.50;65.40
27072;DHT22;14613;46.308;25.288;2023-07-31T10:52:44;30.70;64.80
27072;DHT22;14613;46.308;25.288;2023-07-31T10:55:35;30.70;64.30
27072;DHT22;14613;46.308;25.288;2023-07-31T10:58:11;30.80;64.20
27072;DHT22;14613;46.308;25.288;2023-07-31T11:00:42;30.70;63.80
27072;DHT22;14613;46.308;25.288;2023-07-31T11:03:10;30.60;63.40
27072;DHT22;14613;46.308;25.288;2023-07-31T11:08:13;30.30;63.60
27072;DHT22;14613;46.308;25.288;2023-07-31T11:10:39;30.40;63.90
27072;DHT22;14613;46.308;25.288;2023-07-31T11:13:05;30.50;63.60
27072;DHT22;14613;46.308;25.288;2023-07-31T11:15:31;30.70;63.30
27072;DHT22;14613;46.308;25.288;2023-07-31T11:17:57;30.80;63.00
27072;DHT22;14613;46.308;25.288;2023-07-31T11:20:25;30.90;62.60
27072;DHT22;14613;46.308;25.288;2023-07-31T11:22:52;30.80;62.50
27072;DHT22;14613;46.308;25.288;2023-07-31T11:25:18;30.90;62.80
27072;DHT22;14613;46.308;25.288;2023-07-31T11:27:44;31.10;62.90
27072;DHT22;14613;46.308;25.288;2023-07-31T11:30:10;31.30;62.60
27072;DHT22;14613;46.308;25.288;2023-07-31T11:32:37;31.40;61.50
27072;DHT22;14613;46.308;25.288;2023-07-31T11:35:03;31.30;60.90
27072;DHT22;14613;46.308;25.288;2023-07-31T11:37:41;31.40;61.20
27072;DHT22;14613;46.308;25.288;2023-07-31T11:40:08;31.50;60.60
27072;DHT22;14613;46.308;25.288;2023-07-31T11:42:37;31.50;60.50
27072;DHT22;14613;46.308;25.288;2023-07-31T11:45:04;31.60;60.20
27072;DHT22;14613;46.308;25.288;2023-07-31T11:47:32;31.80;60.30
27072;DHT22;14613;46.308;25.288;2023-07-31T11:50:00;31.90;59.60
27072;DHT22;14613;46.308;25.288;2023-07-31T11:52:28;32.00;59.00
27072;DHT22;14613;46.308;25.288;2023-07-31T11:54:54;32.00;58.40
27072;DHT22;14613;46.308;25.288;2023-07-31T11:57:20;31.90;58.20
27072;DHT22;14613;46.308;25.288;2023-07-31T11:59:46;31.80;58.30
27072;DHT22;14613;46.308;25.288;2023-07-31T12:02:12;31.70;58.40
27072;DHT22;14613;46.308;25.288;2023-07-31T12:04:38;31.80;58.50
27072;DHT22;14613;46.308;25.288;2023-07-31T12:07:04;31.90;58.40
27072;DHT22;14613;46.308;25.288;2023-07-31T12:09:30;32.10;58.20
27072;DHT22;14613;46.308;25.288;2023-07-31T12:11:56;32.10;57.80
27072;DHT22;14613;46.308;25.288;2023-07-31T12:14:24;32.10;57.70
27072;DHT22;14613;46.308;25.288;2023-07-31T12:16:55;32.00;57.60
27072;DHT22;14613;46.308;25.288;2023-07-31T12:19:21;31.90;57.70
27072;DHT22;14613;46.308;25.288;2023-07-31T12:21:47;32.00;57.90
27072;DHT22;14613;46.308;25.288;2023-07-31T12:24:13;32.10;57.70
27072;DHT22;14613;46.308;25.288;2023-07-31T12:26:39;32.20;57.60
27072;DHT22;14613;46.308;25.288;2023-07-31T12:29:07;32.40;57.50
27072;DHT22;14613;46.308;25.288;2023-07-31T12:31:34;32.50;57.40
27072;DHT22;14613;46.308;25.288;2023-07-31T12:34:00;32.60;57.20
27072;DHT22;14613;46.308;25.288;2023-07-31T12:36:26;32.60;56.40
27072;DHT22;14613;46.308;25.288;2023-07-31T12:38:54;32.40;56.30
27072;DHT22;14613;46.308;25.288;2023-07-31T12:41:21;32.20;56.30
27072;DHT22;14613;46.308;25.288;2023-07-31T12:43:47;32.10;56.40
27072;DHT22;14613;46.308;25.288;2023-07-31T12:46:13;32.00;56.70
27072;DHT22;14613;46.308;25.288;2023-07-31T12:48:39;32.00;56.90
27072;DHT22;14613;46.308;25.288;2023-07-31T12:51:05;32.10;56.70
27072;DHT22;14613;46.308;25.288;2023-07-31T12:53:32;32.10;56.40
27072;DHT22;14613;46.308;25.288;2023-07-31T12:55:58;32.10;56.80
27072;DHT22;14613;46.308;25.288;2023-07-31T12:58:24;32.20;56.80
27072;DHT22;14613;46.308;25.288;2023-07-31T13:00:51;32.40;56.80
27072;DHT22;14613;46.308;25.288;2023-07-31T13:03:16;32.40;56.50
27072;DHT22;14613;46.308;25.288;2023-07-31T13:05:42;32.40;56.20
27072;DHT22;14613;46.308;25.288;2023-07-31T13:08:08;32.20;56.20
27072;DHT22;14613;46.308;25.288;2023-07-31T13:10:34;32.00;56.40
27072;DHT22;14613;46.308;25.288;2023-07-31T13:12:59;31.90;56.60
27072;DHT22;14613;46.308;25.288;2023-07-31T13:15:25;31.80;56.60
27072;DHT22;14613;46.308;25.288;2023-07-31T13:17:51;31.60;56.50
27072;DHT22;14613;46.308;25.288;2023-07-31T13:20:16;31.50;56.70
27072;DHT22;14613;46.308;25.288;2023-07-31T13:22:42;31.40;57.40
27072;DHT22;14613;46.308;25.288;2023-07-31T13:25:08;31.30;56.90
27072;DHT22;14613;46.308;25.288;2023-07-31T13:27:34;31.10;57.00
27072;DHT22;14613;46.308;25.288;2023-07-31T13:30:00;31.00;57.00
27072;DHT22;14613;46.308;25.288;2023-07-31T13:32:26;30.90;57.20
27072;DHT22;14613;46.308;25.288;2023-07-31T13:34:52;30.70;57.20
27072;DHT22;14613;46.308;25.288;2023-07-31T13:37:18;30.70;57.50
27072;DHT22;14613;46.308;25.288;2023-07-31T13:39:43;30.70;57.60
27072;DHT22;14613;46.308;25.288;2023-07-31T13:42:09;30.70;57.70
27072;DHT22;14613;46.308;25.288;2023-07-31T13:44:41;30.70;57.90
27072;DHT22;14613;46.308;25.288;2023-07-31T13:47:08;30.70;57.80
27072;DHT22;14613;46.308;25.288;2023-07-31T13:49:34;30.50;57.60
27072;DHT22;14613;46.308;25.288;2023-07-31T13:52:01;30.30;57.50
27072;DHT22;14613;46.308;25.288;2023-07-31T13:54:47;29.80;57.50
27072;DHT22;14613;46.308;25.288;2023-07-31T13:57:13;28.70;55.90
27072;DHT22;14613;46.308;25.288;2023-07-31T13:59:38;27.70;56.50
27072;DHT22;14613;46.308;25.288;2023-07-31T14:02:04;26.60;57.80
27072;DHT22;14613;46.308;25.288;2023-07-31T14:04:30;25.90;59.10
27072;DHT22;14613;46.308;25.288;2023-07-31T14:06:56;25.40;60.20
27072;DHT22;14613;46.308;25.288;2023-07-31T14:09:22;24.90;61.40
27072;DHT22;14613;46.308;25.288;2023-07-31T14:11:48;24.20;65.90
27072;DHT22;14613;46.308;25.288;2023-07-31T14:14:19;23.00;73.40
27072;DHT22;14613;46.308;25.288;2023-07-31T14:16:45;22.10;74.40
27072;DHT22;14613;46.308;25.288;2023-07-31T14:19:12;21.40;75.80
27072;DHT22;14613;46.308;25.288;2023-07-31T14:21:38;21.10;76.20
27072;DHT22;14613;46.308;25.288;2023-07-31T14:24:04;21.20;76.20
27072;DHT22;14613;46.308;25.288;2023-07-31T14:26:29;21.20;75.80
27072;DHT22;14613;46.308;25.288;2023-07-31T14:28:55;21.30;75.50
27072;DHT22;14613;46.308;25.288;2023-07-31T14:31:21;21.40;75.30
27072;DHT22;14613;46.308;25.288;2023-07-31T14:33:46;21.50;75.10
27072;DHT22;14613;46.308;25.288;2023-07-31T14:36:12;21.60;75.00
27072;DHT22;14613;46.308;25.288;2023-07-31T14:38:38;21.80;74.90
27072;DHT22;14613;46.308;25.288;2023-07-31T14:41:04;21.90;74.80
27072;DHT22;14613;46.308;25.288;2023-07-31T14:43:29;22.10;74.70
27072;DHT22;14613;46.308;25.288;2023-07-31T14:45:55;22.20;74.50
27072;DHT22;14613;46.308;25.288;2023-07-31T14:48:24;22.30;74.30
27072;DHT22;14613;46.308;25.288;2023-07-31T14:50:50;22.50;74.30
27072;DHT22;14613;46.308;25.288;2023-07-31T14:53:16;22.60;74.30
27072;DHT22;14613;46.308;25.288;2023-07-31T14:55:42;22.70;74.30
27072;DHT22;14613;46.308;25.288;2023-07-31T14:58:07;22.90;74.20
27072;DHT22;14613;46.308;25.288;2023-07-31T15:00:35;23.00;74.20
27072;DHT22;14613;46.308;25.288;2023-07-31T15:03:02;23.10;74.00
27072;DHT22;14613;46.308;25.288;2023-07-31T15:05:28;23.30;74.00
27072;DHT22;14613;46.308;25.288;2023-07-31T15:07:53;23.30;73.90
27072;DHT22;14613;46.308;25.288;2023-07-31T15:10:19;23.40;73.90
27072;DHT22;14613;46.308;25.288;2023-07-31T15:12:45;23.50;73.90
27072;DHT22;14613;46.308;25.288;2023-07-31T15:15:11;23.40;73.80
27072;DHT22;14613;46.308;25.288;2023-07-31T15:17:36;23.30;73.70
27072;DHT22;14613;46.308;25.288;2023-07-31T15:20:03;23.30;73.90
27072;DHT22;14613;46.308;25.288;2023-07-31T15:22:29;23.20;74.20
27072;DHT22;14613;46.308;25.288;2023-07-31T15:24:56;23.20;74.40
27072;DHT22;14613;46.308;25.288;2023-07-31T15:27:22;23.20;74.50
27072;DHT22;14613;46.308;25.288;2023-07-31T15:29:49;23.20;74.50
27072;DHT22;14613;46.308;25.288;2023-07-31T15:32:16;23.20;74.50
27072;DHT22;14613;46.308;25.288;2023-07-31T15:34:43;23.20;74.50
27072;DHT22;14613;46.308;25.288;2023-07-31T15:37:09;23.30;74.60
27072;DHT22;14613;46.308;25.288;2023-07-31T15:39:35;23.30;74.80
27072;DHT22;14613;46.308;25.288;2023-07-31T15:42:00;23.30;74.80
27072;DHT22;14613;46.308;25.288;2023-07-31T15:44:26;23.30;75.00
27072;DHT22;14613;46.308;25.288;2023-07-31T15:46:52;23.30;75.10
27072;DHT22;14613;46.308;25.288;2023-07-31T15:49:18;23.30;75.10
27072;DHT22;14613;46.308;25.288;2023-07-31T15:51:43;23.30;75.30
27072;DHT22;14613;46.308;25.288;2023-07-31T15:54:09;23.30;75.40
27072;DHT22;14613;46.308;25.288;2023-07-31T15:56:35;23.30;75.60
27072;DHT22;14613;46.308;25.288;2023-07-31T15:59:01;23.30;75.60
27072;DHT22;14613;46.308;25.288;2023-07-31T16:01:27;23.20;75.70
27072;DHT22;14613;46.308;25.288;2023-07-31T16:03:53;23.10;76.10
27072;DHT22;14613;46.308;25.288;2023-07-31T16:06:19;23.00;76.40
27072;DHT22;14613;46.308;25.288;2023-07-31T16:08:45;23.00;76.50
27072;DHT22;14613;46.308;25.288;2023-07-31T16:11:11;23.00;76.70
27072;DHT22;14613;46.308;25.288;2023-07-31T16:20:51;23.00;77.10
27072;DHT22;14613;46.308;25.288;2023-07-31T16:23:17;23.00;77.20
27072;DHT22;14613;46.308;25.288;2023-07-31T16:25:42;23.00;77.20
27072;DHT22;14613;46.308;25.288;2023-07-31T16:28:08;22.90;77.20
27072;DHT22;14613;46.308;25.288;2023-07-31T16:30:34;22.90;77.30
27072;DHT22;14613;46.308;25.288;2023-07-31T16:33:00;22.90;77.50
27072;DHT22;14613;46.308;25.288;2023-07-31T16:35:26;22.80;77.50
27072;DHT22;14613;46.308;25.288;2023-07-31T16:37:52;22.90;77.60
27072;DHT22;14613;46.308;25.288;2023-07-31T16:40:17;22.80;78.60
27072;DHT22;14613;46.308;25.288;2023-07-31T16:42:43;22.70;77.90
27072;DHT22;14613;46.308;25.288;2023-07-31T16:45:09;22.70;78.10
27072;DHT22;14613;46.308;25.288;2023-07-31T16:47:34;22.60;78.30